Time;durP1;ratioP1;P1;durP2;ratioP2;P2;SDS_P1;SDS_P2;PMS_P1;PMS_P2;Temp;Humidity;BMP_temperature;BMP_pressure;BME280_temperature;BME280_humidity;BME280_pressure;Samples;Min_cycle;Max_cycle;Signal;HPM_P1;HPM_P2
2024/04/24 00:01:34;;;;;;;6.07;3.15;;;;;;;;;;5343213;26;20025;-69
2024/04/24 00:04:00;;;;;;;7.93;3.92;;;;;;;;;;5358915;26;20011;-69
2024/04/24 00:06:26;;;;;;;5.82;3.28;;;;;;;;;;5355005;26;20280;-69
2024/04/24 00:08:52;;;;;;;6.10;3.35;;;;;;;;;;5362693;26;20027;-70
2024/04/24 00:11:19;;;;;;;5.50;2.90;;;;;;;;;;5352884;26;20031;-69
2024/04/24 00:13:45;;;;;;;5.63;2.78;;;;;;;;;;5348889;26;20424;-69
2024/04/24 00:16:11;;;;;;;6.53;2.88;;;;;;;;;;5359900;26;20043;-69
2024/04/24 00:18:37;;;;;;;5.65;2.90;;;;;;;;;;5363859;26;20685;-69
2024/04/24 00:21:03;;;;;;;5.22;2.80;;;;;;;;;;5369407;26;20019;-70
2024/04/24 00:23:29;;;;;;;6.03;3.15;;;;;;;;;;5370408;26;20000;-69
2024/04/24 00:25:56;;;;;;;6.00;3.25;;;;;;;;;;5344797;26;20382;-69
2024/04/24 00:28:22;;;;;;;7.75;3.17;;;;;;;;;;5349200;26;19996;-70
2024/04/24 00:30:48;;;;;;;6.32;3.13;;;;;;;;;;5359434;26;20037;-69
2024/04/24 00:33:14;;;;;;;7.38;3.30;;;;;;;;;;5366311;26;20131;-68
2024/04/24 00:35:40;;;;;;;5.88;3.03;;;;;;;;;;5361512;26;20000;-69
2024/04/24 00:38:06;;;;;;;7.32;3.38;;;;;;;;;;5363999;26;20027;-69
2024/04/24 00:40:36;;;;;;;7.03;3.58;;;;;;;;;;5361688;26;19996;-71
2024/04/24 00:43:02;;;;;;;7.00;3.65;;;;;;;;;;5362680;26;20314;-70
2024/04/24 00:45:28;;;;;;;5.35;3.03;;;;;;;;;;5358520;26;20007;-69
2024/04/24 00:47:54;;;;;;;7.20;3.45;;;;;;;;;;5370689;26;20141;-69
2024/04/24 00:50:21;;;;;;;6.50;3.22;;;;;;;;;;5353914;26;20307;-70
2024/04/24 00:52:47;;;;;;;6.22;3.30;;;;;;;;;;5364386;26;20122;-69
2024/04/24 00:55:13;;;;;;;6.47;3.25;;;;;;;;;;5369162;26;20558;-69
2024/04/24 00:57:39;;;;;;;8.80;3.83;;;;;;;;;;5366330;26;20066;-69
2024/04/24 01:00:05;;;;;;;7.70;4.22;;;;;;;;;;5367408;26;20007;-70
2024/04/24 01:02:31;;;;;;;9.93;4.13;;;;;;;;;;5358284;26;20000;-70
2024/04/24 01:04:57;;;;;;;8.10;3.90;;;;;;;;;;5355832;26;20019;-69
2024/04/24 01:07:23;;;;;;;7.57;3.92;;;;;;;;;;5353857;26;20036;-71
2024/04/24 01:09:49;;;;;;;9.93;4.80;;;;;;;;;;5354704;26;20015;-70
2024/04/24 01:12:15;;;;;;;6.60;4.07;;;;;;;;;;5361664;26;20070;-69
2024/04/24 01:14:41;;;;;;;10.27;4.82;;;;;;;;;;5355893;26;20000;-70
2024/04/24 01:17:07;;;;;;;8.75;4.10;;;;;;;;;;5359044;26;20045;-70
2024/04/24 01:19:41;;;;;;;9.48;4.72;;;;;;;;;;5358158;26;20130;-69
2024/04/24 01:22:23;;;;;;;9.10;4.78;;;;;;;;;;5360214;26;20035;-70
2024/04/24 01:24:56;;;;;;;9.55;4.85;;;;;;;;;;5361777;26;19996;-71
2024/04/24 01:27:22;;;;;;;10.27;5.20;;;;;;;;;;5357699;26;20015;-69
2024/04/24 01:29:48;;;;;;;8.43;5.00;;;;;;;;;;5365793;26;20397;-69
2024/04/24 01:32:13;;;;;;;9.02;4.85;;;;;;;;;;5356638;26;20035;-70
2024/04/24 01:34:39;;;;;;;10.35;5.13;;;;;;;;;;5367807;26;20016;-69
2024/04/24 01:37:05;;;;;;;9.18;4.40;;;;;;;;;;5363332;26;20325;-69
2024/04/24 01:39:31;;;;;;;8.88;4.15;;;;;;;;;;5360398;26;20010;-70
2024/04/24 01:41:57;;;;;;;6.75;3.50;;;;;;;;;;5364291;26;20011;-69
2024/04/24 01:44:23;;;;;;;6.90;3.30;;;;;;;;;;5356300;26;20409;-71
2024/04/24 01:46:49;;;;;;;10.85;4.25;;;;;;;;;;5366584;26;19996;-69
2024/04/24 01:49:15;;;;;;;6.32;3.20;;;;;;;;;;5363993;26;20049;-70
2024/04/24 01:51:41;;;;;;;7.72;3.15;;;;;;;;;;5350547;26;20000;-70
2024/04/24 01:54:06;;;;;;;7.63;3.45;;;;;;;;;;5364172;26;20001;-69
2024/04/24 01:56:32;;;;;;;7.68;3.45;;;;;;;;;;5358557;26;20289;-69
2024/04/24 01:58:58;;;;;;;5.45;2.92;;;;;;;;;;5363226;26;20374;-69
2024/04/24 02:01:24;;;;;;;5.93;2.90;;;;;;;;;;5359164;26;20325;-70
2024/04/24 02:03:50;;;;;;;6.80;3.88;;;;;;;;;;5364248;26;20042;-69
2024/04/24 02:06:17;;;;;;;5.78;3.25;;;;;;;;;;5366488;26;20034;-69
2024/04/24 02:08:43;;;;;;;6.78;3.45;;;;;;;;;;5368688;26;20393;-69
2024/04/24 02:11:09;;;;;;;8.00;4.47;;;;;;;;;;5361529;26;20018;-69
2024/04/24 02:13:35;;;;;;;5.85;3.15;;;;;;;;;;5363214;26;20048;-69
2024/04/24 02:16:01;;;;;;;7.35;3.78;;;;;;;;;;5356573;26;20111;-69
2024/04/24 02:18:27;;;;;;;5.85;2.83;;;;;;;;;;5356743;26;20029;-69
2024/04/24 02:20:52;;;;;;;4.80;2.65;;;;;;;;;;5354681;26;20081;-69
2024/04/24 02:23:23;;;;;;;6.63;3.42;;;;;;;;;;5371128;26;20424;-69
2024/04/24 02:25:48;;;;;;;6.57;2.97;;;;;;;;;;5362042;26;20051;-71
2024/04/24 02:28:14;;;;;;;5.15;2.70;;;;;;;;;;5348754;26;20009;-70
2024/04/24 02:30:40;;;;;;;7.22;2.92;;;;;;;;;;5350496;26;20304;-72
2024/04/24 02:33:06;;;;;;;5.20;2.88;;;;;;;;;;5354451;26;20045;-70
2024/04/24 02:35:32;;;;;;;7.82;2.80;;;;;;;;;;5356915;26;19997;-69
2024/04/24 02:37:58;;;;;;;5.55;2.47;;;;;;;;;;5350464;26;20389;-69
2024/04/24 02:40:24;;;;;;;6.57;2.95;;;;;;;;;;5354819;26;20016;-69
2024/04/24 02:42:50;;;;;;;6.03;2.83;;;;;;;;;;5349947;26;20081;-69
2024/04/24 02:45:16;;;;;;;6.03;2.70;;;;;;;;;;5360773;26;20409;-69
2024/04/24 02:47:42;;;;;;;4.68;2.22;;;;;;;;;;5365367;26;20038;-69
2024/04/24 02:50:07;;;;;;;5.50;2.50;;;;;;;;;;5351112;26;20331;-69
2024/04/24 02:52:34;;;;;;;5.70;2.83;;;;;;;;;;5364557;26;20084;-68
2024/04/24 02:55:00;;;;;;;4.05;2.28;;;;;;;;;;5359654;26;20011;-69
2024/04/24 02:57:26;;;;;;;6.05;2.40;;;;;;;;;;5363231;26;20000;-69
2024/04/24 02:59:51;;;;;;;4.30;2.15;;;;;;;;;;5353963;26;20000;-69
2024/04/24 03:02:17;;;;;;;3.45;1.73;;;;;;;;;;5350236;26;20321;-69
2024/04/24 03:04:43;;;;;;;4.05;1.98;;;;;;;;;;5358586;26;20015;-69
2024/04/24 03:07:09;;;;;;;6.28;2.10;;;;;;;;;;5351734;26;20103;-70
2024/04/24 03:09:35;;;;;;;2.67;1.65;;;;;;;;;;5357304;26;20015;-69
2024/04/24 03:12:01;;;;;;;5.63;2.25;;;;;;;;;;5359795;26;20004;-70
2024/04/24 03:14:27;;;;;;;4.55;2.20;;;;;;;;;;5367040;26;20010;-69
2024/04/24 03:16:53;;;;;;;3.97;1.75;;;;;;;;;;5359684;26;20001;-69
2024/04/24 03:19:19;;;;;;;4.13;2.00;;;;;;;;;;5357743;26;20011;-68
2024/04/24 03:21:45;;;;;;;3.75;2.00;;;;;;;;;;5361460;26;20051;-69
2024/04/24 03:24:11;;;;;;;4.60;1.50;;;;;;;;;;5363293;26;20023;-70
2024/04/24 03:26:36;;;;;;;4.70;2.13;;;;;;;;;;5362301;26;20107;-69
2024/04/24 03:29:02;;;;;;;3.60;1.60;;;;;;;;;;5364996;26;20315;-69
2024/04/24 03:31:32;;;;;;;2.72;1.63;;;;;;;;;;5362529;26;20103;-69
2024/04/24 03:33:58;;;;;;;3.13;1.52;;;;;;;;;;5358317;26;20289;-68
2024/04/24 03:36:24;;;;;;;3.22;1.85;;;;;;;;;;5367234;26;20004;-68
2024/04/24 03:38:50;;;;;;;3.40;1.98;;;;;;;;;;5359132;26;20024;-69
2024/04/24 03:41:16;;;;;;;4.13;1.73;;;;;;;;;;5356047;26;20084;-69
2024/04/24 03:43:42;;;;;;;5.80;2.03;;;;;;;;;;5360321;26;20001;-69
2024/04/24 03:46:08;;;;;;;3.33;1.60;;;;;;;;;;5358793;26;20120;-68
2024/04/24 03:48:34;;;;;;;4.93;1.60;;;;;;;;;;5362767;26;20095;-69
2024/04/24 03:51:00;;;;;;;8.02;2.17;;;;;;;;;;5364680;26;20105;-69
2024/04/24 03:53:26;;;;;;;3.20;1.40;;;;;;;;;;5358744;26;20000;-69
2024/04/24 03:55:52;;;;;;;4.90;1.88;;;;;;;;;;5358684;26;20290;-70
2024/04/24 03:58:18;;;;;;;3.05;1.67;;;;;;;;;;5360597;26;20078;-69
2024/04/24 04:00:44;;;;;;;3.72;1.80;;;;;;;;;;5366424;26;19996;-69
2024/04/24 04:03:10;;;;;;;5.47;1.67;;;;;;;;;;5361589;26;20409;-69
2024/04/24 04:05:36;;;;;;;3.67;1.88;;;;;;;;;;5369424;26;20643;-69
2024/04/24 04:08:02;;;;;;;3.50;1.98;;;;;;;;;;5364433;26;20036;-69
2024/04/24 04:10:28;;;;;;;5.60;2.17;;;;;;;;;;5354009;26;20077;-68
2024/04/24 04:12:53;;;;;;;5.05;2.22;;;;;;;;;;5363791;26;20013;-69
2024/04/24 04:15:19;;;;;;;4.95;2.30;;;;;;;;;;5365871;26;20097;-68
2024/04/24 04:17:46;;;;;;;4.55;2.13;;;;;;;;;;5366314;26;20005;-69
2024/04/24 04:20:13;;;;;;;5.47;2.42;;;;;;;;;;5370904;26;20032;-70
2024/04/24 04:22:39;;;;;;;3.67;2.30;;;;;;;;;;5352723;26;20126;-69
2024/04/24 04:25:05;;;;;;;4.47;2.13;;;;;;;;;;5368589;26;20424;-68
2024/04/24 04:27:31;;;;;;;3.00;1.77;;;;;;;;;;5359237;26;20044;-69
2024/04/24 04:29:57;;;;;;;5.22;1.58;;;;;;;;;;5360622;26;19997;-67
2024/04/24 04:32:23;;;;;;;4.32;1.67;;;;;;;;;;5369269;26;20008;-66
2024/04/24 04:34:49;;;;;;;4.20;2.00;;;;;;;;;;5366150;26;20102;-66
2024/04/24 04:37:15;;;;;;;4.88;1.70;;;;;;;;;;5351611;26;20079;-66
2024/04/24 04:39:41;;;;;;;3.88;2.17;;;;;;;;;;5352150;26;20441;-66
2024/04/24 04:42:06;;;;;;;2.65;1.77;;;;;;;;;;5361102;26;20009;-67
2024/04/24 04:44:32;;;;;;;4.38;1.70;;;;;;;;;;5351562;26;20102;-66
2024/04/24 04:46:58;;;;;;;3.50;2.03;;;;;;;;;;5362061;26;20016;-66
2024/04/24 04:49:24;;;;;;;3.58;2.05;;;;;;;;;;5366034;26;20309;-66
2024/04/24 04:51:50;;;;;;;2.67;1.50;;;;;;;;;;5351303;26;20008;-66
2024/04/24 04:54:16;;;;;;;3.63;1.77;;;;;;;;;;5369164;26;19992;-66
2024/04/24 04:56:42;;;;;;;3.83;1.95;;;;;;;;;;5357178;26;20017;-66
2024/04/24 04:59:08;;;;;;;3.13;1.65;;;;;;;;;;5368787;26;20000;-66
2024/04/24 05:01:34;;;;;;;2.85;1.58;;;;;;;;;;5363207;26;19996;-66
2024/04/24 05:04:00;;;;;;;5.47;1.92;;;;;;;;;;5371846;26;20049;-66
2024/04/24 05:06:26;;;;;;;2.78;1.52;;;;;;;;;;5348204;26;20004;-66
2024/04/24 05:08:52;;;;;;;2.20;1.25;;;;;;;;;;5367903;26;20506;-66
2024/04/24 05:11:18;;;;;;;2.75;1.33;;;;;;;;;;5368987;26;20087;-66
2024/04/24 05:13:44;;;;;;;3.80;1.75;;;;;;;;;;5366459;26;20343;-66
2024/04/24 05:16:11;;;;;;;5.47;1.65;;;;;;;;;;5369461;26;20000;-66
2024/04/24 05:18:37;;;;;;;2.83;1.25;;;;;;;;;;5363290;26;20086;-66
2024/04/24 05:21:05;;;;;;;2.60;1.27;;;;;;;;;;5366633;26;20007;-67
2024/04/24 05:23:31;;;;;;;2.67;1.40;;;;;;;;;;5366865;26;20048;-67
2024/04/24 05:25:57;;;;;;;2.67;1.20;;;;;;;;;;5368217;26;20393;-67
2024/04/24 05:31:08;;;;;;;4.47;1.63;;;;;;;;;;5365789;26;20007;-66
2024/04/24 05:33:34;;;;;;;2.35;1.00;;;;;;;;;;5368608;26;20000;-66
2024/04/24 05:36:01;;;;;;;3.17;1.17;;;;;;;;;;5367592;26;20104;-67
2024/04/24 05:38:27;;;;;;;3.13;1.50;;;;;;;;;;5359152;26;20041;-67
2024/04/24 05:40:53;;;;;;;2.95;1.05;;;;;;;;;;5360486;26;19997;-68
2024/04/24 05:43:19;;;;;;;1.73;1.08;;;;;;;;;;5354023;26;20030;-67
2024/04/24 05:45:45;;;;;;;2.08;1.20;;;;;;;;;;5368259;26;20323;-68
2024/04/24 05:48:11;;;;;;;2.33;1.10;;;;;;;;;;5355250;26;20000;-65
2024/04/24 05:50:37;;;;;;;2.05;1.55;;;;;;;;;;5361373;26;20012;-66
2024/04/24 05:53:03;;;;;;;2.80;1.05;;;;;;;;;;5365836;26;20000;-65
2024/04/24 05:55:29;;;;;;;2.03;1.40;;;;;;;;;;5362637;26;20120;-66
2024/04/24 05:57:55;;;;;;;2.22;1.30;;;;;;;;;;5367815;26;20408;-66
2024/04/24 06:00:20;;;;;;;2.85;1.20;;;;;;;;;;5368771;26;20087;-68
2024/04/24 06:02:46;;;;;;;2.30;1.42;;;;;;;;;;5369822;26;20358;-70
2024/04/24 06:05:12;;;;;;;1.40;0.90;;;;;;;;;;5369645;26;19996;-66
2024/04/24 06:07:40;;;;;;;2.67;1.13;;;;;;;;;;5355587;26;20011;-64
2024/04/24 06:10:07;;;;;;;2.08;1.02;;;;;;;;;;5364982;26;20136;-65
2024/04/24 06:12:32;;;;;;;3.28;1.50;;;;;;;;;;5365366;26;20100;-65
2024/04/24 06:14:58;;;;;;;2.92;1.30;;;;;;;;;;5363695;26;20020;-73
2024/04/24 06:17:24;;;;;;;3.22;1.58;;;;;;;;;;5362934;26;20047;-68
2024/04/24 06:19:50;;;;;;;2.05;1.10;;;;;;;;;;5365353;26;20094;-68
2024/04/24 06:22:16;;;;;;;2.95;1.30;;;;;;;;;;5361387;26;20071;-67
2024/04/24 06:24:42;;;;;;;3.78;1.35;;;;;;;;;;5364311;26;20338;-65
2024/04/24 06:27:09;;;;;;;2.88;1.38;;;;;;;;;;5363036;26;20012;-66
2024/04/24 06:29:35;;;;;;;1.80;1.20;;;;;;;;;;5363101;26;20001;-66
2024/04/24 06:32:01;;;;;;;2.88;1.73;;;;;;;;;;5356782;26;19997;-66
2024/04/24 06:34:27;;;;;;;2.17;1.15;;;;;;;;;;5363350;26;20083;-66
2024/04/24 06:36:53;;;;;;;2.13;0.90;;;;;;;;;;5367459;26;20473;-66
2024/04/24 06:39:19;;;;;;;5.45;1.20;;;;;;;;;;5348434;26;20850;-66
2024/04/24 06:41:45;;;;;;;2.15;1.00;;;;;;;;;;5357797;26;20129;-66
2024/04/24 06:44:11;;;;;;;2.83;1.30;;;;;;;;;;5359155;26;20000;-67
2024/04/24 06:46:36;;;;;;;3.90;1.55;;;;;;;;;;5361835;26;20058;-66
2024/04/24 06:49:02;;;;;;;1.85;0.98;;;;;;;;;;5365930;26;20078;-66
2024/04/24 06:51:28;;;;;;;2.47;1.00;;;;;;;;;;5365321;26;19997;-65
2024/04/24 06:53:54;;;;;;;4.18;1.10;;;;;;;;;;5368401;26;20366;-65
2024/04/24 06:56:20;;;;;;;2.80;1.25;;;;;;;;;;5351654;26;20563;-66
2024/04/24 06:58:46;;;;;;;1.02;0.93;;;;;;;;;;5366755;26;20401;-65
2024/04/24 07:01:12;;;;;;;1.83;1.30;;;;;;;;;;5363216;26;20011;-65
2024/04/24 07:03:38;;;;;;;2.97;1.10;;;;;;;;;;5349564;26;20016;-65
2024/04/24 07:06:04;;;;;;;2.65;1.08;;;;;;;;;;5360224;26;20424;-66
2024/04/24 07:08:32;;;;;;;2.55;1.15;;;;;;;;;;5363293;26;20069;-66
2024/04/24 07:10:58;;;;;;;1.40;0.73;;;;;;;;;;5365545;26;20032;-66
2024/04/24 07:13:24;;;;;;;1.45;0.93;;;;;;;;;;5348660;26;20124;-65
2024/04/24 07:15:50;;;;;;;1.70;0.98;;;;;;;;;;5349117;26;20011;-66
2024/04/24 07:18:16;;;;;;;1.90;0.95;;;;;;;;;;5358162;26;19997;-65
2024/04/24 07:20:42;;;;;;;2.33;1.15;;;;;;;;;;5350399;26;20022;-65
2024/04/24 07:23:08;;;;;;;3.03;1.52;;;;;;;;;;5361068;26;20005;-66
2024/04/24 07:25:34;;;;;;;2.67;1.63;;;;;;;;;;5359875;26;20079;-66
2024/04/24 07:28:00;;;;;;;2.50;1.25;;;;;;;;;;5369529;26;20052;-68
2024/04/24 07:30:26;;;;;;;2.47;1.20;;;;;;;;;;5366171;26;20071;-66
2024/04/24 07:32:52;;;;;;;2.10;1.02;;;;;;;;;;5360836;26;20386;-65
2024/04/24 07:35:18;;;;;;;2.80;1.30;;;;;;;;;;5366671;26;20008;-66
2024/04/24 07:37:44;;;;;;;3.22;1.17;;;;;;;;;;5370558;26;20015;-66
2024/04/24 07:40:10;;;;;;;2.58;1.17;;;;;;;;;;5367792;26;20445;-66
2024/04/24 07:42:36;;;;;;;4.15;1.15;;;;;;;;;;5365235;26;20083;-67
2024/04/24 07:45:02;;;;;;;1.65;1.05;;;;;;;;;;5363004;26;20073;-67
2024/04/24 07:47:28;;;;;;;2.60;1.10;;;;;;;;;;5366486;26;20468;-67
2024/04/24 07:49:54;;;;;;;3.08;1.40;;;;;;;;;;5368612;26;20045;-67
2024/04/24 07:52:20;;;;;;;1.10;1.00;;;;;;;;;;5367308;26;20300;-68
2024/04/24 07:54:45;;;;;;;2.08;1.20;;;;;;;;;;5356344;26;20012;-68
2024/04/24 07:57:12;;;;;;;2.22;1.30;;;;;;;;;;5366564;26;20015;-66
2024/04/24 07:59:37;;;;;;;4.65;1.30;;;;;;;;;;5362291;26;20075;-66
2024/04/24 08:02:03;;;;;;;3.40;1.30;;;;;;;;;;5364736;26;20025;-66
2024/04/24 08:04:29;;;;;;;2.70;1.48;;;;;;;;;;5361548;26;20052;-66
2024/04/24 08:06:55;;;;;;;5.97;1.35;;;;;;;;;;5364859;26;20036;-66
2024/04/24 08:09:21;;;;;;;3.10;1.25;;;;;;;;;;5370853;26;20447;-66
2024/04/24 08:11:47;;;;;;;1.90;1.17;;;;;;;;;;5361720;26;20136;-66
2024/04/24 08:14:13;;;;;;;2.90;1.42;;;;;;;;;;5359798;26;20114;-67
2024/04/24 08:16:39;;;;;;;2.38;1.17;;;;;;;;;;5358577;26;20382;-67
2024/04/24 08:19:05;;;;;;;3.17;1.52;;;;;;;;;;5368543;26;20092;-66
2024/04/24 08:21:31;;;;;;;3.70;1.30;;;;;;;;;;5363723;26;20004;-66
2024/04/24 08:23:57;;;;;;;2.92;1.52;;;;;;;;;;5367829;26;20004;-69
2024/04/24 08:26:23;;;;;;;2.80;1.30;;;;;;;;;;5363077;26;20412;-69
2024/04/24 08:28:49;;;;;;;5.00;1.42;;;;;;;;;;5367563;26;20000;-69
2024/04/24 08:31:15;;;;;;;2.45;1.35;;;;;;;;;;5368643;26;20096;-68
2024/04/24 08:33:41;;;;;;;3.47;1.77;;;;;;;;;;5359409;26;20085;-70
2024/04/24 08:36:11;;;;;;;3.53;2.00;;;;;;;;;;5353015;26;20125;-69
2024/04/24 08:38:38;;;;;;;10.40;4.07;;;;;;;;;;5361395;26;20339;-68
2024/04/24 08:41:04;;;;;;;6.95;2.63;;;;;;;;;;5350000;26;20131;-70
2024/04/24 08:43:30;;;;;;;10.27;3.47;;;;;;;;;;5370545;26;20001;-70
2024/04/24 08:46:00;;;;;;;16.73;5.15;;;;;;;;;;5355383;26;20007;-69
2024/04/24 08:48:26;;;;;;;4.18;2.38;;;;;;;;;;5354163;26;20008;-67
2024/04/24 08:50:53;;;;;;;27.30;8.43;;;;;;;;;;5360444;26;20037;-68
2024/04/24 08:53:21;;;;;;;4.72;2.30;;;;;;;;;;5342621;26;20096;-68
2024/04/24 08:55:47;;;;;;;5.10;2.05;;;;;;;;;;5372882;26;20094;-69
2024/04/24 08:58:17;;;;;;;4.15;1.63;;;;;;;;;;5367781;26;20390;-69
2024/04/24 09:00:44;;;;;;;7.28;2.92;;;;;;;;;;5347982;26;19997;-69
2024/04/24 09:03:15;;;;;;;4.10;1.67;;;;;;;;;;5352439;26;20460;-70
2024/04/24 09:05:42;;;;;;;4.43;1.85;;;;;;;;;;5363400;26;20000;-70
2024/04/24 09:08:09;;;;;;;4.85;2.15;;;;;;;;;;5360286;26;20353;-68
2024/04/24 09:10:35;;;;;;;4.13;1.80;;;;;;;;;;5359039;26;20069;-69
2024/04/24 09:13:02;;;;;;;1.42;0.73;;;;;;;;;;5367771;26;20441;-68
2024/04/24 09:15:28;;;;;;;2.63;1.20;;;;;;;;;;5363762;26;20004;-70
2024/04/24 09:17:54;;;;;;;1.90;1.00;;;;;;;;;;5353588;26;20116;-68
2024/04/24 09:20:21;;;;;;;1.50;0.80;;;;;;;;;;5362017;26;20517;-69
2024/04/24 09:22:47;;;;;;;1.13;0.60;;;;;;;;;;5363475;26;20478;-69
2024/04/24 09:25:12;;;;;;;2.60;0.80;;;;;;;;;;5365093;26;20000;-69
2024/04/24 09:27:38;;;;;;;7.57;2.30;;;;;;;;;;5359800;26;20012;-69
2024/04/24 09:30:04;;;;;;;27.23;8.45;;;;;;;;;;5364522;26;19996;-69
2024/04/24 09:32:30;;;;;;;7.07;2.78;;;;;;;;;;5363364;26;20000;-69
2024/04/24 09:34:56;;;;;;;20.10;6.10;;;;;;;;;;5363614;26;20015;-69
2024/04/24 09:37:23;;;;;;;20.63;6.35;;;;;;;;;;5368594;26;20046;-67
2024/04/24 09:39:49;;;;;;;16.48;5.88;;;;;;;;;;5360881;26;20018;-68
2024/04/24 09:42:15;;;;;;;12.77;4.80;;;;;;;;;;5368419;26;20298;-68
2024/04/24 09:44:43;;;;;;;4.57;2.08;;;;;;;;;;5368375;26;20053;-68
2024/04/24 09:47:08;;;;;;;4.68;2.33;;;;;;;;;;5361896;26;20076;-68
2024/04/24 09:49:37;;;;;;;2.25;1.27;;;;;;;;;;5368076;26;20078;-68
2024/04/24 09:52:03;;;;;;;1.10;0.70;;;;;;;;;;5363242;26;20011;-68
2024/04/24 09:54:29;;;;;;;1.77;0.60;;;;;;;;;;5369710;26;20000;-68
2024/04/24 09:56:58;;;;;;;0.63;0.47;;;;;;;;;;5363165;26;19997;-69
2024/04/24 09:59:28;;;;;;;0.63;0.52;;;;;;;;;;5366298;26;20007;-68
2024/04/24 10:01:54;;;;;;;0.30;0.30;;;;;;;;;;5361639;26;20019;-67
2024/04/24 10:04:20;;;;;;;0.93;0.55;;;;;;;;;;5362643;26;19996;-67
2024/04/24 10:06:48;;;;;;;2.63;0.85;;;;;;;;;;5366432;26;20072;-67
2024/04/24 10:09:16;;;;;;;1.13;0.77;;;;;;;;;;5360781;26;20004;-67
2024/04/24 10:11:47;;;;;;;0.43;0.40;;;;;;;;;;5363182;26;20438;-67
2024/04/24 10:14:15;;;;;;;1.05;0.52;;;;;;;;;;5354542;26;19996;-67
2024/04/24 10:16:42;;;;;;;0.47;0.40;;;;;;;;;;5353888;26;20075;-67
2024/04/24 10:19:08;;;;;;;0.88;0.47;;;;;;;;;;5367175;26;20325;-67
2024/04/24 10:21:35;;;;;;;0.50;0.50;;;;;;;;;;5358697;26;20086;-67
2024/04/24 10:24:02;;;;;;;2.25;1.15;;;;;;;;;;5357778;26;20016;-67
2024/04/24 10:26:29;;;;;;;2.80;0.98;;;;;;;;;;5355296;26;20000;-67
2024/04/24 10:28:55;;;;;;;4.65;1.35;;;;;;;;;;5363456;26;20041;-67
2024/04/24 10:31:23;;;;;;;5.50;2.35;;;;;;;;;;5361216;26;20013;-68
2024/04/24 10:33:49;;;;;;;2.92;1.27;;;;;;;;;;5353202;26;20301;-67
2024/04/24 10:36:15;;;;;;;4.57;1.15;;;;;;;;;;5364290;26;20020;-67
2024/04/24 10:38:45;;;;;;;2.05;1.00;;;;;;;;;;5358728;26;20000;-68
2024/04/24 10:41:10;;;;;;;0.88;0.68;;;;;;;;;;5362993;26;19998;-67
2024/04/24 10:43:37;;;;;;;0.77;0.50;;;;;;;;;;5363755;26;20415;-67
2024/04/24 10:46:05;;;;;;;0.50;0.50;;;;;;;;;;5365607;26;20327;-68
2024/04/24 10:48:44;;;;;;;0.40;0.40;;;;;;;;;;5351856;26;20012;-68
2024/04/24 10:51:10;;;;;;;0.70;0.70;;;;;;;;;;5359543;26;20012;-67
2024/04/24 10:53:45;;;;;;;1.52;0.47;;;;;;;;;;5364526;26;20308;-67
2024/04/24 10:56:18;;;;;;;0.30;0.30;;;;;;;;;;5361385;26;20001;-68
2024/04/24 10:58:52;;;;;;;1.08;0.55;;;;;;;;;;5361458;26;20015;-68
2024/04/24 11:01:18;;;;;;;0.40;0.40;;;;;;;;;;5353604;26;20098;-68
2024/04/24 11:03:44;;;;;;;0.32;0.32;;;;;;;;;;5355518;26;20014;-67
2024/04/24 11:06:13;;;;;;;0.25;0.25;;;;;;;;;;5355376;26;20018;-68
2024/04/24 11:08:41;;;;;;;0.35;0.32;;;;;;;;;;5357504;26;20466;-68
2024/04/24 11:11:08;;;;;;;0.68;0.60;;;;;;;;;;5359833;26;20105;-69
2024/04/24 11:13:34;;;;;;;0.43;0.40;;;;;;;;;;5348776;26;20769;-68
2024/04/24 11:16:00;;;;;;;0.50;0.40;;;;;;;;;;5370592;26;20000;-68
2024/04/24 11:18:26;;;;;;;0.63;0.52;;;;;;;;;;5362827;26;20301;-67
2024/04/24 11:20:52;;;;;;;1.25;0.68;;;;;;;;;;5360233;26;20011;-75
2024/04/24 11:23:18;;;;;;;0.40;0.40;;;;;;;;;;5357586;26;20007;-68
2024/04/24 11:25:52;;;;;;;0.82;0.40;;;;;;;;;;5361575;26;20515;-68
2024/04/24 11:28:20;;;;;;;0.32;0.32;;;;;;;;;;5356687;26;20401;-69
2024/04/24 11:30:47;;;;;;;1.55;0.73;;;;;;;;;;5357132;26;20005;-69
2024/04/24 11:33:13;;;;;;;0.40;0.40;;;;;;;;;;5358333;26;20081;-69
2024/04/24 11:35:42;;;;;;;0.38;0.30;;;;;;;;;;5359147;26;20015;-69
2024/04/24 11:38:08;;;;;;;0.43;0.40;;;;;;;;;;5358275;26;19996;-67
2024/04/24 11:40:34;;;;;;;0.40;0.30;;;;;;;;;;5351366;26;20414;-68
2024/04/24 11:43:00;;;;;;;0.20;0.20;;;;;;;;;;5355843;26;20462;-68
2024/04/24 11:45:26;;;;;;;0.32;0.32;;;;;;;;;;5354537;26;20080;-68
2024/04/24 11:47:52;;;;;;;1.00;0.50;;;;;;;;;;5358661;26;20541;-68
2024/04/24 11:50:19;;;;;;;0.22;0.22;;;;;;;;;;5351159;26;20023;-68
2024/04/24 11:52:45;;;;;;;0.55;0.38;;;;;;;;;;5359848;26;20421;-68
2024/04/24 11:55:12;;;;;;;0.38;0.22;;;;;;;;;;5357542;26;20441;-69
2024/04/24 11:57:39;;;;;;;0.20;0.20;;;;;;;;;;5367418;26;20165;-68
2024/04/24 12:00:06;;;;;;;0.68;0.20;;;;;;;;;;5354025;26;20485;-67
2024/04/24 12:02:32;;;;;;;0.40;0.40;;;;;;;;;;5363850;26;20000;-68
2024/04/24 12:04:58;;;;;;;0.20;0.20;;;;;;;;;;5362839;26;20003;-67
2024/04/24 12:07:28;;;;;;;0.30;0.30;;;;;;;;;;5367374;26;20069;-68
2024/04/24 12:09:54;;;;;;;0.32;0.32;;;;;;;;;;5352968;26;20008;-68
2024/04/24 12:12:20;;;;;;;0.43;0.40;;;;;;;;;;5356284;26;20022;-67
2024/04/24 12:14:49;;;;;;;0.40;0.40;;;;;;;;;;5357031;26;20444;-67
2024/04/24 12:17:15;;;;;;;0.35;0.35;;;;;;;;;;5361223;26;20035;-68
2024/04/24 12:19:41;;;;;;;1.58;0.60;;;;;;;;;;5359032;26;20364;-69
2024/04/24 12:22:07;;;;;;;1.67;0.50;;;;;;;;;;5366638;26;20077;-70
2024/04/24 12:24:33;;;;;;;0.65;0.50;;;;;;;;;;5362949;26;20001;-69
2024/04/24 12:26:59;;;;;;;0.47;0.47;;;;;;;;;;5362428;26;20008;-69
2024/04/24 12:29:25;;;;;;;0.95;0.60;;;;;;;;;;5365295;26;20007;-69
2024/04/24 12:31:51;;;;;;;0.57;0.57;;;;;;;;;;5363209;26;20011;-70
2024/04/24 12:34:19;;;;;;;1.10;0.60;;;;;;;;;;5362426;26;19996;-69
2024/04/24 12:36:45;;;;;;;0.82;0.60;;;;;;;;;;5361328;26;20108;-69
2024/04/24 12:39:11;;;;;;;0.45;0.40;;;;;;;;;;5367324;26;20000;-69
2024/04/24 12:41:37;;;;;;;0.57;0.40;;;;;;;;;;5367755;26;20090;-68
2024/04/24 12:44:03;;;;;;;0.30;0.30;;;;;;;;;;5365290;26;20016;-68
2024/04/24 12:46:29;;;;;;;0.22;0.22;;;;;;;;;;5361713;26;20014;-68
2024/04/24 12:48:55;;;;;;;0.20;0.20;;;;;;;;;;5368812;26;20004;-69
2024/04/24 12:51:22;;;;;;;0.40;0.40;;;;;;;;;;5356090;26;20475;-70
2024/04/24 12:53:48;;;;;;;0.43;0.30;;;;;;;;;;5360984;26;20069;-69
2024/04/24 12:56:14;;;;;;;0.20;0.20;;;;;;;;;;5358366;26;20433;-67
2024/04/24 12:58:40;;;;;;;0.20;0.20;;;;;;;;;;5364777;26;20129;-67
2024/04/24 13:01:06;;;;;;;0.30;0.30;;;;;;;;;;5359459;26;19996;-67
2024/04/24 13:03:32;;;;;;;0.30;0.30;;;;;;;;;;5355113;26;20024;-67
2024/04/24 13:05:57;;;;;;;0.30;0.30;;;;;;;;;;5346429;26;20443;-69
2024/04/24 13:08:23;;;;;;;0.40;0.40;;;;;;;;;;5358262;26;20073;-67
2024/04/24 13:10:49;;;;;;;0.20;0.20;;;;;;;;;;5351322;26;20050;-67
2024/04/24 13:13:15;;;;;;;0.43;0.30;;;;;;;;;;5363206;26;20291;-69
2024/04/24 13:15:41;;;;;;;0.75;0.17;;;;;;;;;;5358634;26;20004;-67
2024/04/24 13:18:07;;;;;;;0.35;0.35;;;;;;;;;;5341348;26;20090;-68
2024/04/24 13:20:33;;;;;;;0.20;0.20;;;;;;;;;;5358695;26;20083;-68
2024/04/24 13:22:59;;;;;;;0.15;0.15;;;;;;;;;;5356514;26;20012;-68
2024/04/24 13:25:25;;;;;;;0.22;0.20;;;;;;;;;;5349584;26;20173;-68
2024/04/24 13:27:51;;;;;;;0.25;0.20;;;;;;;;;;5353342;26;20052;-68
2024/04/24 13:30:17;;;;;;;0.20;0.20;;;;;;;;;;5356290;26;20069;-69
2024/04/24 13:32:43;;;;;;;0.32;0.30;;;;;;;;;;5363091;26;19997;-68
2024/04/24 13:35:08;;;;;;;0.30;0.30;;;;;;;;;;5363607;26;20004;-67
2024/04/24 13:37:34;;;;;;;0.50;0.20;;;;;;;;;;5363453;26;20348;-67
2024/04/24 13:40:00;;;;;;;0.50;0.30;;;;;;;;;;5361982;26;20019;-69
2024/04/24 13:42:26;;;;;;;0.50;0.20;;;;;;;;;;5366629;26;20114;-67
2024/04/24 13:44:53;;;;;;;0.20;0.20;;;;;;;;;;5356258;26;20012;-68
2024/04/24 13:47:20;;;;;;;0.20;0.20;;;;;;;;;;5360995;26;20051;-68
2024/04/24 13:49:46;;;;;;;0.20;0.20;;;;;;;;;;5347940;26;20313;-67
2024/04/24 13:52:12;;;;;;;0.70;0.40;;;;;;;;;;5369769;26;20011;-68
2024/04/24 13:54:38;;;;;;;0.47;0.38;;;;;;;;;;5361548;26;20004;-68
2024/04/24 13:57:03;;;;;;;0.25;0.20;;;;;;;;;;5358775;26;20302;-67
2024/04/24 13:59:29;;;;;;;0.98;0.32;;;;;;;;;;5357709;26;20632;-67
2024/04/24 14:01:57;;;;;;;1.70;0.70;;;;;;;;;;5355772;26;20068;-68
2024/04/24 14:04:23;;;;;;;0.40;0.30;;;;;;;;;;5364869;26;20020;-68
2024/04/24 14:06:49;;;;;;;0.63;0.30;;;;;;;;;;5354393;26;20065;-67
2024/04/24 14:09:15;;;;;;;0.32;0.30;;;;;;;;;;5359919;26;20001;-67
2024/04/24 14:11:41;;;;;;;0.20;0.20;;;;;;;;;;5362626;26;20028;-67
2024/04/24 14:14:08;;;;;;;1.73;0.30;;;;;;;;;;5353018;26;20004;-70
2024/04/24 14:16:34;;;;;;;0.65;0.30;;;;;;;;;;5356007;26;20480;-67
2024/04/24 14:19:00;;;;;;;0.20;0.20;;;;;;;;;;5365055;26;20004;-69
2024/04/24 14:21:26;;;;;;;1.50;0.43;;;;;;;;;;5360721;26;20004;-68
2024/04/24 14:23:52;;;;;;;0.30;0.28;;;;;;;;;;5356206;26;20405;-67
2024/04/24 14:26:18;;;;;;;0.35;0.20;;;;;;;;;;5366745;26;20020;-67
2024/04/24 14:28:44;;;;;;;0.10;0.10;;;;;;;;;;5362944;26;20508;-67
2024/04/24 14:31:10;;;;;;;0.52;0.30;;;;;;;;;;5346338;26;20080;-67
2024/04/24 14:33:36;;;;;;;0.10;0.10;;;;;;;;;;5352039;26;19996;-67
2024/04/24 14:36:02;;;;;;;1.08;0.45;;;;;;;;;;5357273;26;20026;-68
2024/04/24 14:38:28;;;;;;;0.70;0.38;;;;;;;;;;5364692;26;20001;-67
2024/04/24 14:40:54;;;;;;;0.30;0.30;;;;;;;;;;5361602;26;20089;-68